Prichard, WV (25555)

8:30 PM EDT on October 21, 2014 (GMT -0400)
Tri-State / Ferguson | Change Station
CLOSE
Current Station
Airport
Location: Huntington,
Elevation: 837 ft
Nearby Weather Stations

Elev 837 ft 38.37 °N, 82.56 °W | Updated 39 minutes ago

Overcast
Overcast
49 °F
Feels Like 49 °F
N
8
Wind Variable Wind from WNW

Today
High -- | Low -- °F
--% Chance of Precip.
Yesterday
High -- | Low -- °F
Precip. -- in
7:45 AM 6:44 PM
Waning Crescent, 4% visible
Pressure 30.07 in
Visibility 10.0 miles
Clouds Few 2600 ft
Mostly Cloudy 3400 ft
Overcast 6500 ft
Dew Point 43 °F
Humidity 80%
Rainfall 0.02 in
Snow Depth Not available.
UV 0 out of 12
Pollen 1.50 out of 12
Air Quality Not available.
Flu Activity Sporadic
METAR KHTS 212351Z 30007KT 10SM FEW026 BKN034 OVC065 09/06 A3007 RMK AO2 SLP183 60002 T00940061 10117 20094 53013

More Conditions Fewer Conditions

Pressure 30.07 in
Visibility 10.0 miles
Clouds Few 2600 ft
Mostly Cloudy 3400 ft
Overcast 6500 ft
Dew Point 43 °F
Humidity 80%
Rainfall 0.02 in
Snow Depth Not available.
UV 0 out of 12
Pollen 1.50 out of 12
Air Quality Not available.
Flu Activity Sporadic
METAR KHTS 212351Z 30007KT 10SM FEW026 BKN034 OVC065 09/06 A3007 RMK AO2 SLP183 60002 T00940061 10117 20094 53013

More Conditions Fewer Conditions

10-Day Weather Forecast

Almanac

Astronomy

Oct. 21, 2014 Rise Set
Actual Time 7:45 AM EDT 6:44 PM EDT
Civil Twilight 7:18 AM EDT 7:11 PM EDT
Nautical Twilight 6:47 AM EDT 7:41 PM EDT
Astronomical Twilight 6:16 AM EDT 8:12 PM EDT
Moon 5:30 AM EDT (10/21) 5:36 PM EDT (10/21)
Length of Visible Light 11h 52m
Length of Day
10h 59m
Tomorrow will be 2m 20s shorter.
Waning Crescent, 4% of the Moon is Illuminated
Today
Waning Crescent
Oct 23
New
Oct 30
First Quarter
Nov 6
Full
Nov 14
Last Quarter

Today's Extremes

State Highs State Lows

Community

WunderPhotos

Upload Photos

1,763,829 photos uploaded!

Nearby

Snow Depth

Station Depth Elevation
No new snow has been reported.

Earthquake Activity

City Distance Mag. Time & Date
No recent earthquake activity has been reported nearby.
Minimum magnitude displayed is 2.5.

Coastal Water Temperatures

Place Temperature
No Stations Reporting

Nearby Weather Stations